الصفحة الرئيسية
METAR-TAF:

METAR-TAF

مطار :

كروتوني, إيطاليا

دائرة عرض: 39-00N, خط طول: 017-04E, ارتفاع: 155 متر

مراقبة الطقس الحالي

تاريخ ووقت الإصدار 3ساعات و 24 دقيقة قبل الساعة 17:50UTC
ريح 6 عقدة من الجنوب/الجنوب الغربي
درجة الحرارة 17°درجة مئوية
الرطوبة 68%
ضغط 1017 hPa
الرؤية 10 كم أو أكثر
الغيوم لا تقل 1500 م ولا وجود لمزنة ركامية السحاب الأسود

METAR: LIBC 291750Z 20006KT CAVOK 17/11 Q1017

زمن: 23:14 (21:14 UTC)

توقعات

تاريخ ووقت الإصدار 10ساعات و 14 دقيقة قبل الساعة 11:00UTC
التوقعات صالحة من29 الساعة 12 UTC إلى 30 الساعة 12 UTC
ريح 12 عقدة من الجنوب الغربي
الرؤية 10 كم أو أكثر
غيوم متفرقة على ارتفاع 3000 قدم
أصبح
من 29 الساعة 18 UTC إلى 29 الساعة 20 UTC
ريح 5 عقدةمن اتجاهات متغيرة
مؤقت
من 30 الساعة 09 UTC إلى 30 الساعة 12 UTC
زخات من المطر

TAF: LIBC 291100Z 2912/3012 22012KT 9999 SCT030 BECMG 2918/2920 VRB05KT TEMPO 3009/3012 SHRA

أرصاد الطقس والتوقعات من أكثر من 4000 مطار (تقارير الطقس للمطار METAR والتنبؤ بالطقس بالمطارTAF).

المحطات المتاحة هي النقط الصفراء والحمراء على الخريطة.

حرك المؤشر فوق النقطة لمعرفة اسم المحطة.

ثم انقر لمعرفة أرصاد وتوقعات الطقس.

لتغيير الخارطة: اضغط على الأزرار الخضراء مع رمز الصليب الأسود للتكبير. على الزر الأخضر مع شرطة للتصغير، أو على الأسهم الخضراء للخرائط المجاورة.


METAR-TAF: